Terminal Aerodrome Forecast
Issued by NWS Cleveland, OH

Home | Current Version | Previous Version | Graphics & Text | Print | Product List | Glossary On
Versions: 1 2 3 4 5 6 7 8 9 10 11 12 13 14 15 16 17 18 19 20 21 22 23 24 25 26 27 28 29 30 31
000
FTUS41 KCLE 151300 AAA
TAFERI
TAF AMD
KERI 151326Z 1513/1612 17004KT 3SM BR BKN003 OVC008
      TEMPO 1513/1515 2SM BR
     FM151500 15006KT 5SM BR OVC006
     FM151900 08006KT P6SM OVC014
     FM152200 12006KT P6SM OVC022
     FM160900 15008KT 5SM -RA BR OVC040=

USA.gov is the U.S. government's official web portal to all federal, state and local government web resources and services.